sensor_id;sensor_type;location;lat;lon;timestamp;P1;durP1;ratioP1;P2;durP2;ratioP2
36501;SDS011;25393;46.108;3.390;2022-10-16T00:00:53;4.60;;;4.07;;
36501;SDS011;25393;46.108;3.390;2022-10-16T00:03:20;6.25;;;4.18;;
36501;SDS011;25393;46.108;3.390;2022-10-16T00:05:53;4.32;;;4.00;;
36501;SDS011;25393;46.108;3.390;2022-10-16T00:08:19;4.53;;;4.22;;
36501;SDS011;25393;46.108;3.390;2022-10-16T00:10:46;7.65;;;3.67;;
36501;SDS011;25393;46.108;3.390;2022-10-16T00:13:13;4.50;;;4.20;;
36501;SDS011;25393;46.108;3.390;2022-10-16T00:15:40;4.80;;;4.40;;
36501;SDS011;25393;46.108;3.390;2022-10-16T00:18:09;4.15;;;3.85;;
36501;SDS011;25393;46.108;3.390;2022-10-16T00:20:36;7.30;;;4.30;;
36501;SDS011;25393;46.108;3.390;2022-10-16T00:23:03;6.70;;;4.60;;
36501;SDS011;25393;46.108;3.390;2022-10-16T00:25:31;6.85;;;4.70;;
36501;SDS011;25393;46.108;3.390;2022-10-16T00:27:59;4.30;;;4.00;;
36501;SDS011;25393;46.108;3.390;2022-10-16T00:30:27;11.25;;;5.32;;
36501;SDS011;25393;46.108;3.390;2022-10-16T00:32:54;4.80;;;4.18;;
36501;SDS011;25393;46.108;3.390;2022-10-16T00:35:21;7.63;;;4.15;;
36501;SDS011;25393;46.108;3.390;2022-10-16T00:37:48;4.75;;;3.88;;
36501;SDS011;25393;46.108;3.390;2022-10-16T00:40:15;8.23;;;4.63;;
36501;SDS011;25393;46.108;3.390;2022-10-16T00:42:42;8.95;;;4.18;;
36501;SDS011;25393;46.108;3.390;2022-10-16T00:45:09;6.53;;;5.13;;
36501;SDS011;25393;46.108;3.390;2022-10-16T00:47:37;4.53;;;4.13;;
36501;SDS011;25393;46.108;3.390;2022-10-16T00:50:09;6.50;;;3.90;;
36501;SDS011;25393;46.108;3.390;2022-10-16T00:52:37;4.00;;;3.80;;
36501;SDS011;25393;46.108;3.390;2022-10-16T00:55:07;4.10;;;3.90;;
36501;SDS011;25393;46.108;3.390;2022-10-16T00:57:36;4.15;;;3.80;;
36501;SDS011;25393;46.108;3.390;2022-10-16T01:00:05;4.15;;;3.70;;
36501;SDS011;25393;46.108;3.390;2022-10-16T01:02:33;4.30;;;3.90;;
36501;SDS011;25393;46.108;3.390;2022-10-16T01:05:00;5.07;;;3.72;;
36501;SDS011;25393;46.108;3.390;2022-10-16T01:13:00;5.03;;;3.90;;
36501;SDS011;25393;46.108;3.390;2022-10-16T01:18:08;5.15;;;4.30;;
36501;SDS011;25393;46.108;3.390;2022-10-16T01:20:51;8.45;;;3.90;;
36501;SDS011;25393;46.108;3.390;2022-10-16T01:28:21;7.45;;;3.70;;
36501;SDS011;25393;46.108;3.390;2022-10-16T01:30:55;6.07;;;3.78;;
36501;SDS011;25393;46.108;3.390;2022-10-16T01:33:28;4.65;;;3.33;;
36501;SDS011;25393;46.108;3.390;2022-10-16T01:36:11;4.75;;;3.60;;
36501;SDS011;25393;46.108;3.390;2022-10-16T01:38:42;3.80;;;3.60;;
36501;SDS011;25393;46.108;3.390;2022-10-16T01:41:19;9.85;;;3.97;;
36501;SDS011;25393;46.108;3.390;2022-10-16T01:44:13;4.60;;;3.53;;
36501;SDS011;25393;46.108;3.390;2022-10-16T01:46:44;6.57;;;3.30;;
36501;SDS011;25393;46.108;3.390;2022-10-16T01:49:13;12.07;;;3.70;;
36501;SDS011;25393;46.108;3.390;2022-10-16T01:51:40;6.35;;;3.40;;
36501;SDS011;25393;46.108;3.390;2022-10-16T01:54:11;4.25;;;3.85;;
36501;SDS011;25393;46.108;3.390;2022-10-16T01:56:41;3.90;;;3.70;;
36501;SDS011;25393;46.108;3.390;2022-10-16T01:59:10;3.70;;;3.50;;
36501;SDS011;25393;46.108;3.390;2022-10-16T02:01:40;5.43;;;4.28;;
36501;SDS011;25393;46.108;3.390;2022-10-16T02:04:15;8.80;;;4.10;;
36501;SDS011;25393;46.108;3.390;2022-10-16T02:06:49;4.97;;;4.57;;
36501;SDS011;25393;46.108;3.390;2022-10-16T02:09:16;5.28;;;4.45;;
36501;SDS011;25393;46.108;3.390;2022-10-16T02:11:43;4.95;;;4.45;;
36501;SDS011;25393;46.108;3.390;2022-10-16T02:14:10;4.60;;;4.20;;
36501;SDS011;25393;46.108;3.390;2022-10-16T02:16:41;6.30;;;3.90;;
36501;SDS011;25393;46.108;3.390;2022-10-16T02:19:10;3.92;;;3.72;;
36501;SDS011;25393;46.108;3.390;2022-10-16T02:21:41;4.15;;;3.85;;
36501;SDS011;25393;46.108;3.390;2022-10-16T02:24:13;4.90;;;3.75;;
36501;SDS011;25393;46.108;3.390;2022-10-16T02:27:03;3.50;;;3.30;;
36501;SDS011;25393;46.108;3.390;2022-10-16T02:29:37;3.90;;;3.60;;
36501;SDS011;25393;46.108;3.390;2022-10-16T02:32:07;13.07;;;3.97;;
36501;SDS011;25393;46.108;3.390;2022-10-16T02:34:36;6.78;;;4.20;;
36501;SDS011;25393;46.108;3.390;2022-10-16T02:37:04;4.15;;;3.70;;
36501;SDS011;25393;46.108;3.390;2022-10-16T02:39:32;4.93;;;3.58;;
36501;SDS011;25393;46.108;3.390;2022-10-16T02:42:00;3.80;;;3.60;;
36501;SDS011;25393;46.108;3.390;2022-10-16T02:44:27;8.95;;;4.00;;
36501;SDS011;25393;46.108;3.390;2022-10-16T02:46:54;10.05;;;4.20;;
36501;SDS011;25393;46.108;3.390;2022-10-16T02:49:21;4.28;;;4.00;;
36501;SDS011;25393;46.108;3.390;2022-10-16T02:51:47;4.38;;;4.07;;
36501;SDS011;25393;46.108;3.390;2022-10-16T02:54:14;5.00;;;4.65;;
36501;SDS011;25393;46.108;3.390;2022-10-16T02:56:40;6.90;;;3.55;;
36501;SDS011;25393;46.108;3.390;2022-10-16T02:59:07;7.05;;;4.72;;
36501;SDS011;25393;46.108;3.390;2022-10-16T03:01:34;4.28;;;3.90;;
36501;SDS011;25393;46.108;3.390;2022-10-16T03:04:02;3.97;;;3.72;;
36501;SDS011;25393;46.108;3.390;2022-10-16T03:06:29;4.03;;;3.83;;
36501;SDS011;25393;46.108;3.390;2022-10-16T03:08:55;4.30;;;4.00;;
36501;SDS011;25393;46.108;3.390;2022-10-16T03:11:22;4.30;;;4.00;;
36501;SDS011;25393;46.108;3.390;2022-10-16T03:13:49;4.32;;;3.92;;
36501;SDS011;25393;46.108;3.390;2022-10-16T03:16:15;3.90;;;3.40;;
36501;SDS011;25393;46.108;3.390;2022-10-16T03:18:42;4.60;;;3.30;;
36501;SDS011;25393;46.108;3.390;2022-10-16T03:21:09;3.50;;;3.30;;
36501;SDS011;25393;46.108;3.390;2022-10-16T03:23:35;3.90;;;3.60;;
36501;SDS011;25393;46.108;3.390;2022-10-16T03:26:02;5.78;;;3.70;;
36501;SDS011;25393;46.108;3.390;2022-10-16T03:28:29;8.90;;;4.07;;
36501;SDS011;25393;46.108;3.390;2022-10-16T03:30:55;6.57;;;4.18;;
36501;SDS011;25393;46.108;3.390;2022-10-16T03:33:22;4.30;;;4.00;;
36501;SDS011;25393;46.108;3.390;2022-10-16T03:35:52;4.15;;;3.75;;
36501;SDS011;25393;46.108;3.390;2022-10-16T03:38:20;10.95;;;4.03;;
36501;SDS011;25393;46.108;3.390;2022-10-16T03:40:47;4.25;;;3.60;;
36501;SDS011;25393;46.108;3.390;2022-10-16T03:43:14;4.43;;;3.30;;
36501;SDS011;25393;46.108;3.390;2022-10-16T03:45:41;4.72;;;3.72;;
36501;SDS011;25393;46.108;3.390;2022-10-16T03:48:08;3.80;;;3.22;;
36501;SDS011;25393;46.108;3.390;2022-10-16T03:50:34;3.63;;;3.28;;
36501;SDS011;25393;46.108;3.390;2022-10-16T03:53:01;3.90;;;3.50;;
36501;SDS011;25393;46.108;3.390;2022-10-16T03:55:28;3.80;;;3.50;;
36501;SDS011;25393;46.108;3.390;2022-10-16T03:57:54;3.35;;;3.15;;
36501;SDS011;25393;46.108;3.390;2022-10-16T04:00:21;3.70;;;3.50;;
36501;SDS011;25393;46.108;3.390;2022-10-16T04:02:48;3.85;;;3.55;;
36501;SDS011;25393;46.108;3.390;2022-10-16T04:05:15;5.70;;;3.47;;
36501;SDS011;25393;46.108;3.390;2022-10-16T04:07:41;4.28;;;3.97;;
36501;SDS011;25393;46.108;3.390;2022-10-16T04:10:08;4.30;;;4.00;;
36501;SDS011;25393;46.108;3.390;2022-10-16T04:12:35;5.50;;;3.58;;
36501;SDS011;25393;46.108;3.390;2022-10-16T04:15:01;6.53;;;4.00;;
36501;SDS011;25393;46.108;3.390;2022-10-16T04:17:28;4.45;;;4.05;;
36501;SDS011;25393;46.108;3.390;2022-10-16T04:19:55;4.13;;;3.72;;
36501;SDS011;25393;46.108;3.390;2022-10-16T04:22:21;3.92;;;3.28;;
36501;SDS011;25393;46.108;3.390;2022-10-16T04:24:48;4.05;;;3.70;;
36501;SDS011;25393;46.108;3.390;2022-10-16T04:27:15;6.90;;;3.97;;
36501;SDS011;25393;46.108;3.390;2022-10-16T04:29:41;4.50;;;4.10;;
36501;SDS011;25393;46.108;3.390;2022-10-16T04:32:11;3.80;;;3.60;;
36501;SDS011;25393;46.108;3.390;2022-10-16T04:34:39;4.65;;;4.20;;
36501;SDS011;25393;46.108;3.390;2022-10-16T04:37:06;4.50;;;4.10;;
36501;SDS011;25393;46.108;3.390;2022-10-16T04:39:33;4.57;;;3.70;;
36501;SDS011;25393;46.108;3.390;2022-10-16T04:41:59;3.92;;;3.40;;
36501;SDS011;25393;46.108;3.390;2022-10-16T04:44:26;3.60;;;3.30;;
36501;SDS011;25393;46.108;3.390;2022-10-16T04:46:53;4.90;;;3.70;;
36501;SDS011;25393;46.108;3.390;2022-10-16T04:49:20;4.20;;;3.85;;
36501;SDS011;25393;46.108;3.390;2022-10-16T04:51:46;4.05;;;3.70;;
36501;SDS011;25393;46.108;3.390;2022-10-16T04:54:13;3.90;;;3.60;;
36501;SDS011;25393;46.108;3.390;2022-10-16T04:56:40;6.57;;;4.55;;
36501;SDS011;25393;46.108;3.390;2022-10-16T04:59:14;6.00;;;3.70;;
36501;SDS011;25393;46.108;3.390;2022-10-16T05:01:41;5.80;;;4.00;;
36501;SDS011;25393;46.108;3.390;2022-10-16T05:04:08;3.97;;;3.60;;
36501;SDS011;25393;46.108;3.390;2022-10-16T05:06:35;4.45;;;3.78;;
36501;SDS011;25393;46.108;3.390;2022-10-16T05:09:02;5.47;;;3.92;;
36501;SDS011;25393;46.108;3.390;2022-10-16T05:11:29;4.75;;;3.70;;
36501;SDS011;25393;46.108;3.390;2022-10-16T05:13:56;4.45;;;4.05;;
36501;SDS011;25393;46.108;3.390;2022-10-16T05:16:23;4.20;;;3.90;;
36501;SDS011;25393;46.108;3.390;2022-10-16T05:18:51;6.40;;;5.80;;
36501;SDS011;25393;46.108;3.390;2022-10-16T05:21:29;4.80;;;3.70;;
36501;SDS011;25393;46.108;3.390;2022-10-16T05:23:56;4.40;;;3.67;;
36501;SDS011;25393;46.108;3.390;2022-10-16T05:26:23;4.03;;;3.72;;
36501;SDS011;25393;46.108;3.390;2022-10-16T05:28:50;4.82;;;4.38;;
36501;SDS011;25393;46.108;3.390;2022-10-16T05:31:17;6.55;;;3.90;;
36501;SDS011;25393;46.108;3.390;2022-10-16T05:33:43;3.72;;;3.53;;
36501;SDS011;25393;46.108;3.390;2022-10-16T05:36:10;5.30;;;3.95;;
36501;SDS011;25393;46.108;3.390;2022-10-16T05:38:37;4.68;;;3.80;;
36501;SDS011;25393;46.108;3.390;2022-10-16T05:41:05;7.25;;;4.07;;
36501;SDS011;25393;46.108;3.390;2022-10-16T05:43:32;4.82;;;3.85;;
36501;SDS011;25393;46.108;3.390;2022-10-16T05:46:02;12.32;;;4.50;;
36501;SDS011;25393;46.108;3.390;2022-10-16T05:48:30;6.22;;;3.78;;
36501;SDS011;25393;46.108;3.390;2022-10-16T05:53:30;5.60;;;4.13;;
36501;SDS011;25393;46.108;3.390;2022-10-16T05:55:58;5.30;;;4.13;;
36501;SDS011;25393;46.108;3.390;2022-10-16T05:58:27;4.30;;;4.00;;
36501;SDS011;25393;46.108;3.390;2022-10-16T06:00:56;4.65;;;4.13;;
36501;SDS011;25393;46.108;3.390;2022-10-16T06:03:28;5.80;;;4.30;;
36501;SDS011;25393;46.108;3.390;2022-10-16T06:05:55;4.40;;;3.90;;
36501;SDS011;25393;46.108;3.390;2022-10-16T06:08:22;4.68;;;4.28;;
36501;SDS011;25393;46.108;3.390;2022-10-16T06:10:49;5.22;;;4.38;;
36501;SDS011;25393;46.108;3.390;2022-10-16T06:13:27;5.25;;;4.03;;
36501;SDS011;25393;46.108;3.390;2022-10-16T06:15:56;5.00;;;4.10;;
36501;SDS011;25393;46.108;3.390;2022-10-16T06:18:24;4.50;;;4.10;;
36501;SDS011;25393;46.108;3.390;2022-10-16T06:20:52;5.32;;;4.60;;
36501;SDS011;25393;46.108;3.390;2022-10-16T06:23:20;5.55;;;4.90;;
36501;SDS011;25393;46.108;3.390;2022-10-16T06:25:50;4.88;;;4.47;;
36501;SDS011;25393;46.108;3.390;2022-10-16T06:28:17;7.78;;;4.20;;
36501;SDS011;25393;46.108;3.390;2022-10-16T06:30:44;4.63;;;4.20;;
36501;SDS011;25393;46.108;3.390;2022-10-16T06:33:10;4.80;;;4.35;;
36501;SDS011;25393;46.108;3.390;2022-10-16T06:35:37;4.82;;;4.35;;
36501;SDS011;25393;46.108;3.390;2022-10-16T06:38:04;8.82;;;4.90;;
36501;SDS011;25393;46.108;3.390;2022-10-16T06:40:31;5.00;;;4.50;;
36501;SDS011;25393;46.108;3.390;2022-10-16T06:42:57;6.25;;;4.13;;
36501;SDS011;25393;46.108;3.390;2022-10-16T06:45:24;4.70;;;4.30;;
36501;SDS011;25393;46.108;3.390;2022-10-16T06:47:50;6.97;;;4.50;;
36501;SDS011;25393;46.108;3.390;2022-10-16T06:50:17;5.38;;;4.38;;
36501;SDS011;25393;46.108;3.390;2022-10-16T06:52:43;6.03;;;4.82;;
36501;SDS011;25393;46.108;3.390;2022-10-16T06:55:10;5.20;;;4.75;;
36501;SDS011;25393;46.108;3.390;2022-10-16T06:57:37;6.05;;;5.00;;
36501;SDS011;25393;46.108;3.390;2022-10-16T07:00:03;5.40;;;4.90;;
36501;SDS011;25393;46.108;3.390;2022-10-16T07:02:31;5.15;;;4.75;;
36501;SDS011;25393;46.108;3.390;2022-10-16T07:04:58;4.53;;;4.13;;
36501;SDS011;25393;46.108;3.390;2022-10-16T07:07:24;7.22;;;4.53;;
36501;SDS011;25393;46.108;3.390;2022-10-16T07:09:53;6.40;;;4.43;;
36501;SDS011;25393;46.108;3.390;2022-10-16T07:12:19;7.68;;;4.97;;
36501;SDS011;25393;46.108;3.390;2022-10-16T07:14:46;5.88;;;4.40;;
36501;SDS011;25393;46.108;3.390;2022-10-16T07:17:15;6.22;;;5.00;;
36501;SDS011;25393;46.108;3.390;2022-10-16T07:19:41;6.03;;;4.40;;
36501;SDS011;25393;46.108;3.390;2022-10-16T07:22:08;5.70;;;5.07;;
36501;SDS011;25393;46.108;3.390;2022-10-16T07:24:34;5.45;;;4.95;;
36501;SDS011;25393;46.108;3.390;2022-10-16T07:27:01;4.35;;;4.05;;
36501;SDS011;25393;46.108;3.390;2022-10-16T07:29:28;6.68;;;4.43;;
36501;SDS011;25393;46.108;3.390;2022-10-16T07:31:54;6.03;;;4.80;;
36501;SDS011;25393;46.108;3.390;2022-10-16T07:34:21;14.98;;;5.80;;
36501;SDS011;25393;46.108;3.390;2022-10-16T07:36:48;6.97;;;4.00;;
36501;SDS011;25393;46.108;3.390;2022-10-16T07:39:16;7.00;;;4.70;;
36501;SDS011;25393;46.108;3.390;2022-10-16T07:41:43;5.00;;;4.10;;
36501;SDS011;25393;46.108;3.390;2022-10-16T07:44:10;6.55;;;4.60;;
36501;SDS011;25393;46.108;3.390;2022-10-16T07:46:36;6.78;;;4.70;;
36501;SDS011;25393;46.108;3.390;2022-10-16T07:49:03;6.18;;;4.15;;
36501;SDS011;25393;46.108;3.390;2022-10-16T07:51:30;6.32;;;4.70;;
36501;SDS011;25393;46.108;3.390;2022-10-16T07:53:57;5.70;;;4.43;;
36501;SDS011;25393;46.108;3.390;2022-10-16T07:56:23;4.60;;;4.20;;
36501;SDS011;25393;46.108;3.390;2022-10-16T07:58:51;5.05;;;4.55;;
36501;SDS011;25393;46.108;3.390;2022-10-16T08:01:18;5.05;;;4.40;;
36501;SDS011;25393;46.108;3.390;2022-10-16T08:03:46;9.00;;;4.00;;
36501;SDS011;25393;46.108;3.390;2022-10-16T08:06:15;4.30;;;3.90;;
36501;SDS011;25393;46.108;3.390;2022-10-16T08:08:47;7.22;;;4.13;;
36501;SDS011;25393;46.108;3.390;2022-10-16T08:11:14;7.55;;;4.43;;
36501;SDS011;25393;46.108;3.390;2022-10-16T08:13:41;6.00;;;4.63;;
36501;SDS011;25393;46.108;3.390;2022-10-16T08:16:08;4.72;;;4.32;;
36501;SDS011;25393;46.108;3.390;2022-10-16T08:18:36;4.70;;;4.30;;
36501;SDS011;25393;46.108;3.390;2022-10-16T08:21:03;5.07;;;4.53;;
36501;SDS011;25393;46.108;3.390;2022-10-16T08:23:31;4.60;;;4.30;;
36501;SDS011;25393;46.108;3.390;2022-10-16T08:26:05;5.75;;;4.20;;
36501;SDS011;25393;46.108;3.390;2022-10-16T08:28:34;9.27;;;4.72;;
36501;SDS011;25393;46.108;3.390;2022-10-16T08:31:08;4.57;;;4.18;;
36501;SDS011;25393;46.108;3.390;2022-10-16T08:33:41;5.93;;;4.72;;
36501;SDS011;25393;46.108;3.390;2022-10-16T08:36:09;5.25;;;4.38;;
36501;SDS011;25393;46.108;3.390;2022-10-16T08:38:37;5.60;;;4.38;;
36501;SDS011;25393;46.108;3.390;2022-10-16T08:48:58;4.95;;;4.07;;
36501;SDS011;25393;46.108;3.390;2022-10-16T08:51:27;8.18;;;4.15;;
36501;SDS011;25393;46.108;3.390;2022-10-16T08:53:56;4.05;;;3.75;;
36501;SDS011;25393;46.108;3.390;2022-10-16T08:56:25;6.60;;;4.28;;
36501;SDS011;25393;46.108;3.390;2022-10-16T08:58:53;5.10;;;3.65;;
36501;SDS011;25393;46.108;3.390;2022-10-16T09:01:37;4.25;;;3.70;;
36501;SDS011;25393;46.108;3.390;2022-10-16T09:04:25;7.97;;;4.28;;
36501;SDS011;25393;46.108;3.390;2022-10-16T09:06:58;5.78;;;4.13;;
36501;SDS011;25393;46.108;3.390;2022-10-16T09:12:48;4.30;;;3.92;;
36501;SDS011;25393;46.108;3.390;2022-10-16T09:15:29;5.88;;;4.20;;
36501;SDS011;25393;46.108;3.390;2022-10-16T09:20:34;4.68;;;4.00;;
36501;SDS011;25393;46.108;3.390;2022-10-16T09:26:00;5.57;;;4.55;;
36501;SDS011;25393;46.108;3.390;2022-10-16T09:28:29;6.90;;;3.60;;
36501;SDS011;25393;46.108;3.390;2022-10-16T09:30:56;7.15;;;4.05;;
36501;SDS011;25393;46.108;3.390;2022-10-16T09:33:24;6.10;;;3.63;;
36501;SDS011;25393;46.108;3.390;2022-10-16T09:35:55;6.22;;;3.70;;
36501;SDS011;25393;46.108;3.390;2022-10-16T09:38:29;3.85;;;3.55;;
36501;SDS011;25393;46.108;3.390;2022-10-16T09:40:58;3.92;;;3.60;;
36501;SDS011;25393;46.108;3.390;2022-10-16T09:46:08;5.07;;;3.75;;
36501;SDS011;25393;46.108;3.390;2022-10-16T09:48:55;4.70;;;3.70;;
36501;SDS011;25393;46.108;3.390;2022-10-16T09:51:26;4.93;;;3.72;;
36501;SDS011;25393;46.108;3.390;2022-10-16T09:54:00;6.80;;;3.97;;
36501;SDS011;25393;46.108;3.390;2022-10-16T09:56:48;3.75;;;3.45;;
36501;SDS011;25393;46.108;3.390;2022-10-16T09:59:19;4.47;;;3.55;;
36501;SDS011;25393;46.108;3.390;2022-10-16T10:01:51;6.00;;;3.40;;
36501;SDS011;25393;46.108;3.390;2022-10-16T10:04:19;7.00;;;3.72;;
36501;SDS011;25393;46.108;3.390;2022-10-16T10:06:49;4.00;;;3.70;;
36501;SDS011;25393;46.108;3.390;2022-10-16T10:09:23;3.97;;;3.20;;
36501;SDS011;25393;46.108;3.390;2022-10-16T10:11:55;5.60;;;3.45;;
36501;SDS011;25393;46.108;3.390;2022-10-16T10:14:39;4.20;;;3.80;;
36501;SDS011;25393;46.108;3.390;2022-10-16T10:17:16;4.88;;;3.38;;
36501;SDS011;25393;46.108;3.390;2022-10-16T10:20:00;4.10;;;3.63;;
36501;SDS011;25393;46.108;3.390;2022-10-16T10:22:45;3.70;;;3.40;;
36501;SDS011;25393;46.108;3.390;2022-10-16T10:33:05;3.30;;;3.08;;
36501;SDS011;25393;46.108;3.390;2022-10-16T10:38:33;12.38;;;3.13;;
36501;SDS011;25393;46.108;3.390;2022-10-16T10:41:26;5.68;;;3.55;;
36501;SDS011;25393;46.108;3.390;2022-10-16T10:47:35;6.25;;;3.22;;
36501;SDS011;25393;46.108;3.390;2022-10-16T10:55:27;8.45;;;3.20;;
36501;SDS011;25393;46.108;3.390;2022-10-16T11:00:53;6.25;;;3.17;;
36501;SDS011;25393;46.108;3.390;2022-10-16T11:03:38;3.35;;;2.95;;
36501;SDS011;25393;46.108;3.390;2022-10-16T11:06:39;3.17;;;2.97;;
36501;SDS011;25393;46.108;3.390;2022-10-16T11:09:24;2.90;;;2.70;;
36501;SDS011;25393;46.108;3.390;2022-10-16T11:14:40;8.68;;;2.95;;
36501;SDS011;25393;46.108;3.390;2022-10-16T11:17:13;9.25;;;3.22;;
36501;SDS011;25393;46.108;3.390;2022-10-16T11:19:46;2.97;;;2.78;;
36501;SDS011;25393;46.108;3.390;2022-10-16T11:24:51;3.75;;;3.00;;
36501;SDS011;25393;46.108;3.390;2022-10-16T11:27:41;2.90;;;2.70;;
36501;SDS011;25393;46.108;3.390;2022-10-16T11:30:20;2.95;;;2.75;;
36501;SDS011;25393;46.108;3.390;2022-10-16T11:35:38;6.47;;;2.83;;
36501;SDS011;25393;46.108;3.390;2022-10-16T11:41:18;3.20;;;3.00;;
36501;SDS011;25393;46.108;3.390;2022-10-16T11:46:51;3.40;;;2.78;;
36501;SDS011;25393;46.108;3.390;2022-10-16T11:49:59;4.10;;;2.90;;
36501;SDS011;25393;46.108;3.390;2022-10-16T11:52:40;5.97;;;2.50;;
36501;SDS011;25393;46.108;3.390;2022-10-16T11:55:20;5.18;;;2.72;;
36501;SDS011;25393;46.108;3.390;2022-10-16T11:57:51;4.47;;;2.58;;
36501;SDS011;25393;46.108;3.390;2022-10-16T12:00:26;2.90;;;2.70;;
36501;SDS011;25393;46.108;3.390;2022-10-16T12:08:46;3.00;;;2.70;;
36501;SDS011;25393;46.108;3.390;2022-10-16T12:11:31;3.30;;;3.05;;
36501;SDS011;25393;46.108;3.390;2022-10-16T12:19:21;7.60;;;3.25;;
36501;SDS011;25393;46.108;3.390;2022-10-16T12:21:49;2.90;;;2.70;;
36501;SDS011;25393;46.108;3.390;2022-10-16T12:24:28;3.53;;;2.72;;
36501;SDS011;25393;46.108;3.390;2022-10-16T12:26:59;3.60;;;2.58;;
36501;SDS011;25393;46.108;3.390;2022-10-16T12:32:28;4.65;;;2.88;;
36501;SDS011;25393;46.108;3.390;2022-10-16T12:35:20;4.07;;;2.80;;
36501;SDS011;25393;46.108;3.390;2022-10-16T12:37:49;3.67;;;2.97;;
36501;SDS011;25393;46.108;3.390;2022-10-16T12:42:58;4.78;;;2.97;;
36501;SDS011;25393;46.108;3.390;2022-10-16T12:47:54;5.10;;;3.03;;
36501;SDS011;25393;46.108;3.390;2022-10-16T12:50:29;4.28;;;2.78;;
36501;SDS011;25393;46.108;3.390;2022-10-16T12:52:59;3.45;;;3.00;;
36501;SDS011;25393;46.108;3.390;2022-10-16T12:55:27;4.43;;;3.20;;
36501;SDS011;25393;46.108;3.390;2022-10-16T12:58:21;4.43;;;2.83;;
36501;SDS011;25393;46.108;3.390;2022-10-16T13:01:10;4.30;;;3.22;;
36501;SDS011;25393;46.108;3.390;2022-10-16T13:04:10;6.13;;;3.00;;
36501;SDS011;25393;46.108;3.390;2022-10-16T13:06:42;3.50;;;3.17;;
36501;SDS011;25393;46.108;3.390;2022-10-16T13:09:19;5.13;;;2.92;;
36501;SDS011;25393;46.108;3.390;2022-10-16T13:19:54;4.43;;;2.33;;
36501;SDS011;25393;46.108;3.390;2022-10-16T13:22:27;2.55;;;2.35;;
36501;SDS011;25393;46.108;3.390;2022-10-16T13:25:10;3.70;;;2.80;;
36501;SDS011;25393;46.108;3.390;2022-10-16T13:30:28;4.05;;;2.65;;
36501;SDS011;25393;46.108;3.390;2022-10-16T13:33:47;2.72;;;2.50;;
36501;SDS011;25393;46.108;3.390;2022-10-16T13:35:57;2.70;;;2.40;;
36501;SDS011;25393;46.108;3.390;2022-10-16T13:38:25;3.70;;;2.67;;
36501;SDS011;25393;46.108;3.390;2022-10-16T13:41:14;3.13;;;2.83;;
36501;SDS011;25393;46.108;3.390;2022-10-16T13:43:47;7.28;;;2.67;;
36501;SDS011;25393;46.108;3.390;2022-10-16T13:46:18;3.38;;;2.75;;
36501;SDS011;25393;46.108;3.390;2022-10-16T13:49:00;3.80;;;2.60;;
36501;SDS011;25393;46.108;3.390;2022-10-16T13:51:29;2.55;;;2.42;;
36501;SDS011;25393;46.108;3.390;2022-10-16T13:53:57;2.90;;;2.63;;
36501;SDS011;25393;46.108;3.390;2022-10-16T13:56:25;2.78;;;2.58;;
36501;SDS011;25393;46.108;3.390;2022-10-16T14:01:30;2.90;;;2.70;;
36501;SDS011;25393;46.108;3.390;2022-10-16T14:04:05;2.80;;;2.60;;
36501;SDS011;25393;46.108;3.390;2022-10-16T14:06:35;2.97;;;2.70;;
36501;SDS011;25393;46.108;3.390;2022-10-16T14:09:14;2.97;;;2.72;;
36501;SDS011;25393;46.108;3.390;2022-10-16T14:11:55;6.15;;;2.70;;
36501;SDS011;25393;46.108;3.390;2022-10-16T14:14:30;3.22;;;2.67;;
36501;SDS011;25393;46.108;3.390;2022-10-16T14:17:02;2.80;;;2.60;;
36501;SDS011;25393;46.108;3.390;2022-10-16T14:19:29;3.20;;;2.92;;
36501;SDS011;25393;46.108;3.390;2022-10-16T14:21:57;4.50;;;2.88;;
36501;SDS011;25393;46.108;3.390;2022-10-16T14:24:31;3.72;;;2.90;;
36501;SDS011;25393;46.108;3.390;2022-10-16T14:27:01;5.00;;;2.85;;
36501;SDS011;25393;46.108;3.390;2022-10-16T14:29:28;5.47;;;2.80;;
36501;SDS011;25393;46.108;3.390;2022-10-16T14:32:03;4.97;;;3.50;;
36501;SDS011;25393;46.108;3.390;2022-10-16T14:35:11;3.70;;;2.83;;
36501;SDS011;25393;46.108;3.390;2022-10-16T14:37:57;3.28;;;2.80;;
36501;SDS011;25393;46.108;3.390;2022-10-16T14:40:27;4.85;;;2.58;;
36501;SDS011;25393;46.108;3.390;2022-10-16T14:42:56;3.95;;;2.90;;
36501;SDS011;25393;46.108;3.390;2022-10-16T14:45:24;6.78;;;3.20;;
36501;SDS011;25393;46.108;3.390;2022-10-16T14:47:56;7.40;;;3.00;;
36501;SDS011;25393;46.108;3.390;2022-10-16T14:50:24;4.18;;;3.03;;
36501;SDS011;25393;46.108;3.390;2022-10-16T14:52:51;3.47;;;3.17;;
36501;SDS011;25393;46.108;3.390;2022-10-16T14:55:17;5.35;;;3.17;;
36501;SDS011;25393;46.108;3.390;2022-10-16T14:57:44;3.78;;;3.03;;
36501;SDS011;25393;46.108;3.390;2022-10-16T15:02:49;4.70;;;3.35;;
36501;SDS011;25393;46.108;3.390;2022-10-16T15:05:20;4.10;;;3.47;;
36501;SDS011;25393;46.108;3.390;2022-10-16T15:07:50;3.95;;;3.10;;
36501;SDS011;25393;46.108;3.390;2022-10-16T15:10:17;5.28;;;3.08;;
36501;SDS011;25393;46.108;3.390;2022-10-16T15:12:44;2.75;;;2.53;;
36501;SDS011;25393;46.108;3.390;2022-10-16T15:17:50;5.57;;;3.20;;
36501;SDS011;25393;46.108;3.390;2022-10-16T15:20:25;4.78;;;3.40;;
36501;SDS011;25393;46.108;3.390;2022-10-16T15:23:02;5.45;;;3.63;;
36501;SDS011;25393;46.108;3.390;2022-10-16T15:25:32;4.20;;;3.63;;
36501;SDS011;25393;46.108;3.390;2022-10-16T15:28:00;3.90;;;3.42;;
36501;SDS011;25393;46.108;3.390;2022-10-16T15:30:28;4.32;;;3.15;;
36501;SDS011;25393;46.108;3.390;2022-10-16T15:32:55;3.58;;;3.28;;
36501;SDS011;25393;46.108;3.390;2022-10-16T15:35:22;3.47;;;3.20;;
36501;SDS011;25393;46.108;3.390;2022-10-16T15:37:48;3.40;;;3.15;;
36501;SDS011;25393;46.108;3.390;2022-10-16T15:40:16;6.15;;;3.40;;
36501;SDS011;25393;46.108;3.390;2022-10-16T15:42:44;4.50;;;3.65;;
36501;SDS011;25393;46.108;3.390;2022-10-16T15:45:11;5.03;;;3.05;;
36501;SDS011;25393;46.108;3.390;2022-10-16T15:47:39;3.63;;;3.28;;
36501;SDS011;25393;46.108;3.390;2022-10-16T15:50:11;5.43;;;3.65;;
36501;SDS011;25393;46.108;3.390;2022-10-16T15:52:40;4.95;;;3.50;;
36501;SDS011;25393;46.108;3.390;2022-10-16T15:55:08;4.82;;;3.58;;
36501;SDS011;25393;46.108;3.390;2022-10-16T15:57:36;4.00;;;3.30;;
36501;SDS011;25393;46.108;3.390;2022-10-16T16:00:10;3.90;;;3.25;;
36501;SDS011;25393;46.108;3.390;2022-10-16T16:02:48;10.43;;;3.53;;
36501;SDS011;25393;46.108;3.390;2022-10-16T16:05:16;6.10;;;3.03;;
36501;SDS011;25393;46.108;3.390;2022-10-16T16:07:44;5.25;;;3.63;;
36501;SDS011;25393;46.108;3.390;2022-10-16T16:10:11;4.00;;;3.30;;
36501;SDS011;25393;46.108;3.390;2022-10-16T16:12:38;5.57;;;3.30;;
36501;SDS011;25393;46.108;3.390;2022-10-16T16:15:05;5.25;;;3.55;;
36501;SDS011;25393;46.108;3.390;2022-10-16T16:17:33;4.53;;;3.30;;
36501;SDS011;25393;46.108;3.390;2022-10-16T16:20:01;6.22;;;3.00;;
36501;SDS011;25393;46.108;3.390;2022-10-16T16:22:28;3.63;;;3.30;;
36501;SDS011;25393;46.108;3.390;2022-10-16T16:24:55;8.82;;;3.35;;
36501;SDS011;25393;46.108;3.390;2022-10-16T16:27:21;5.72;;;3.30;;
36501;SDS011;25393;46.108;3.390;2022-10-16T16:29:51;4.80;;;2.80;;
36501;SDS011;25393;46.108;3.390;2022-10-16T16:32:19;4.03;;;2.95;;
36501;SDS011;25393;46.108;3.390;2022-10-16T16:34:46;5.75;;;3.25;;
36501;SDS011;25393;46.108;3.390;2022-10-16T16:37:13;5.43;;;2.88;;
36501;SDS011;25393;46.108;3.390;2022-10-16T16:39:40;3.75;;;2.92;;
36501;SDS011;25393;46.108;3.390;2022-10-16T16:42:06;3.60;;;3.30;;
36501;SDS011;25393;46.108;3.390;2022-10-16T16:44:33;5.68;;;3.55;;
36501;SDS011;25393;46.108;3.390;2022-10-16T16:47:03;4.95;;;3.10;;
36501;SDS011;25393;46.108;3.390;2022-10-16T16:49:30;3.65;;;3.28;;
36501;SDS011;25393;46.108;3.390;2022-10-16T16:51:56;5.45;;;3.17;;
36501;SDS011;25393;46.108;3.390;2022-10-16T16:54:23;3.28;;;2.97;;
36501;SDS011;25393;46.108;3.390;2022-10-16T16:56:50;8.65;;;3.60;;